sensor_id;sensor_type;location;lat;lon;timestamp;P1;durP1;ratioP1;P2;durP2;ratioP2
23826;SDS011;12094;50.822;4.376;2023-08-30T00:00:11;8.88;;;5.50;;
23826;SDS011;12094;50.822;4.376;2023-08-30T00:02:39;11.27;;;5.90;;
23826;SDS011;12094;50.822;4.376;2023-08-30T00:05:08;8.70;;;4.82;;
23826;SDS011;12094;50.822;4.376;2023-08-30T00:07:36;8.30;;;5.03;;
23826;SDS011;12094;50.822;4.376;2023-08-30T00:10:05;8.23;;;4.85;;
23826;SDS011;12094;50.822;4.376;2023-08-30T00:12:38;6.95;;;4.50;;
23826;SDS011;12094;50.822;4.376;2023-08-30T00:15:07;7.60;;;4.53;;
23826;SDS011;12094;50.822;4.376;2023-08-30T00:17:36;10.05;;;5.45;;
23826;SDS011;12094;50.822;4.376;2023-08-30T00:22:35;9.60;;;4.70;;
23826;SDS011;12094;50.822;4.376;2023-08-30T00:25:03;9.40;;;4.45;;
23826;SDS011;12094;50.822;4.376;2023-08-30T00:27:32;7.68;;;4.53;;
23826;SDS011;12094;50.822;4.376;2023-08-30T00:30:03;6.38;;;3.78;;
23826;SDS011;12094;50.822;4.376;2023-08-30T00:32:33;7.25;;;4.35;;
23826;SDS011;12094;50.822;4.376;2023-08-30T00:35:01;7.28;;;4.72;;
23826;SDS011;12094;50.822;4.376;2023-08-30T00:37:30;9.13;;;4.97;;
23826;SDS011;12094;50.822;4.376;2023-08-30T00:39:59;5.93;;;4.32;;
23826;SDS011;12094;50.822;4.376;2023-08-30T00:42:30;6.88;;;5.25;;
23826;SDS011;12094;50.822;4.376;2023-08-30T00:44:58;9.38;;;4.50;;
23826;SDS011;12094;50.822;4.376;2023-08-30T00:47:27;6.82;;;5.03;;
23826;SDS011;12094;50.822;4.376;2023-08-30T00:49:56;10.77;;;5.00;;
23826;SDS011;12094;50.822;4.376;2023-08-30T00:52:25;7.72;;;4.88;;
23826;SDS011;12094;50.822;4.376;2023-08-30T00:54:53;10.50;;;5.28;;
23826;SDS011;12094;50.822;4.376;2023-08-30T00:57:22;10.82;;;5.65;;
23826;SDS011;12094;50.822;4.376;2023-08-30T00:59:51;7.03;;;5.03;;
23826;SDS011;12094;50.822;4.376;2023-08-30T01:02:21;9.93;;;5.57;;
23826;SDS011;12094;50.822;4.376;2023-08-30T01:04:50;9.13;;;5.45;;
23826;SDS011;12094;50.822;4.376;2023-08-30T01:07:20;11.05;;;5.35;;
23826;SDS011;12094;50.822;4.376;2023-08-30T01:09:48;10.82;;;6.07;;
23826;SDS011;12094;50.822;4.376;2023-08-30T01:12:21;8.82;;;5.35;;
23826;SDS011;12094;50.822;4.376;2023-08-30T01:14:56;8.65;;;5.50;;
23826;SDS011;12094;50.822;4.376;2023-08-30T01:17:28;7.95;;;5.65;;
23826;SDS011;12094;50.822;4.376;2023-08-30T01:20:06;10.48;;;5.50;;
23826;SDS011;12094;50.822;4.376;2023-08-30T01:28:22;10.57;;;5.75;;
23826;SDS011;12094;50.822;4.376;2023-08-30T01:30:55;11.27;;;6.22;;
23826;SDS011;12094;50.822;4.376;2023-08-30T01:33:25;15.27;;;6.85;;
23826;SDS011;12094;50.822;4.376;2023-08-30T01:35:58;11.75;;;6.88;;
23826;SDS011;12094;50.822;4.376;2023-08-30T01:38:32;10.95;;;6.50;;
23826;SDS011;12094;50.822;4.376;2023-08-30T01:41:00;12.68;;;6.35;;
23826;SDS011;12094;50.822;4.376;2023-08-30T01:43:31;14.15;;;7.32;;
23826;SDS011;12094;50.822;4.376;2023-08-30T01:46:02;8.27;;;6.55;;
23826;SDS011;12094;50.822;4.376;2023-08-30T01:56:01;13.25;;;7.10;;
23826;SDS011;12094;50.822;4.376;2023-08-30T01:58:32;11.40;;;6.90;;
23826;SDS011;12094;50.822;4.376;2023-08-30T02:01:01;11.55;;;6.95;;
23826;SDS011;12094;50.822;4.376;2023-08-30T02:10:35;13.55;;;7.20;;
23826;SDS011;12094;50.822;4.376;2023-08-30T02:13:07;10.07;;;6.97;;
23826;SDS011;12094;50.822;4.376;2023-08-30T02:15:37;16.05;;;7.13;;
23826;SDS011;12094;50.822;4.376;2023-08-30T02:18:06;11.23;;;7.18;;
23826;SDS011;12094;50.822;4.376;2023-08-30T02:20:35;13.80;;;7.43;;
23826;SDS011;12094;50.822;4.376;2023-08-30T02:23:09;13.80;;;7.53;;
23826;SDS011;12094;50.822;4.376;2023-08-30T02:25:40;10.68;;;6.60;;
23826;SDS011;12094;50.822;4.376;2023-08-30T02:28:09;12.40;;;7.30;;
23826;SDS011;12094;50.822;4.376;2023-08-30T02:30:41;11.98;;;7.28;;
23826;SDS011;12094;50.822;4.376;2023-08-30T02:33:13;12.07;;;7.35;;
23826;SDS011;12094;50.822;4.376;2023-08-30T02:35:43;11.40;;;7.20;;
23826;SDS011;12094;50.822;4.376;2023-08-30T02:38:11;9.63;;;6.55;;
23826;SDS011;12094;50.822;4.376;2023-08-30T02:40:39;11.52;;;6.93;;
23826;SDS011;12094;50.822;4.376;2023-08-30T02:43:07;13.80;;;7.75;;
23826;SDS011;12094;50.822;4.376;2023-08-30T02:45:37;11.68;;;7.30;;
23826;SDS011;12094;50.822;4.376;2023-08-30T02:48:07;14.35;;;7.47;;
23826;SDS011;12094;50.822;4.376;2023-08-30T02:53:06;16.67;;;8.48;;
23826;SDS011;12094;50.822;4.376;2023-08-30T02:55:39;20.30;;;9.60;;
23826;SDS011;12094;50.822;4.376;2023-08-30T02:58:08;19.08;;;9.30;;
23826;SDS011;12094;50.822;4.376;2023-08-30T03:00:37;16.77;;;8.05;;
23826;SDS011;12094;50.822;4.376;2023-08-30T03:03:08;19.10;;;8.95;;
23826;SDS011;12094;50.822;4.376;2023-08-30T03:05:38;18.15;;;9.07;;
23826;SDS011;12094;50.822;4.376;2023-08-30T03:08:07;16.50;;;9.13;;
23826;SDS011;12094;50.822;4.376;2023-08-30T03:10:40;19.13;;;8.47;;
23826;SDS011;12094;50.822;4.376;2023-08-30T03:13:15;15.85;;;9.30;;
23826;SDS011;12094;50.822;4.376;2023-08-30T03:15:43;16.60;;;9.13;;
23826;SDS011;12094;50.822;4.376;2023-08-30T03:18:13;15.07;;;9.52;;
23826;SDS011;12094;50.822;4.376;2023-08-30T03:20:45;15.05;;;8.73;;
23826;SDS011;12094;50.822;4.376;2023-08-30T03:23:12;15.55;;;9.18;;
23826;SDS011;12094;50.822;4.376;2023-08-30T03:25:41;17.15;;;8.77;;
23826;SDS011;12094;50.822;4.376;2023-08-30T03:28:11;16.52;;;8.23;;
23826;SDS011;12094;50.822;4.376;2023-08-30T03:30:39;14.48;;;9.23;;
23826;SDS011;12094;50.822;4.376;2023-08-30T03:33:13;17.88;;;8.75;;
23826;SDS011;12094;50.822;4.376;2023-08-30T03:38:13;15.45;;;8.07;;
23826;SDS011;12094;50.822;4.376;2023-08-30T03:40:46;15.82;;;8.18;;
23826;SDS011;12094;50.822;4.376;2023-08-30T03:43:20;12.77;;;8.15;;
23826;SDS011;12094;50.822;4.376;2023-08-30T03:45:47;16.60;;;8.85;;
23826;SDS011;12094;50.822;4.376;2023-08-30T03:48:18;16.30;;;8.98;;
23826;SDS011;12094;50.822;4.376;2023-08-30T03:50:47;14.55;;;8.30;;
23826;SDS011;12094;50.822;4.376;2023-08-30T03:53:16;17.35;;;7.80;;
23826;SDS011;12094;50.822;4.376;2023-08-30T03:55:43;14.75;;;8.57;;
23826;SDS011;12094;50.822;4.376;2023-08-30T03:58:15;21.83;;;8.43;;
23826;SDS011;12094;50.822;4.376;2023-08-30T04:00:47;16.08;;;7.95;;
23826;SDS011;12094;50.822;4.376;2023-08-30T04:05:47;16.20;;;8.13;;
23826;SDS011;12094;50.822;4.376;2023-08-30T04:08:16;14.27;;;8.30;;
23826;SDS011;12094;50.822;4.376;2023-08-30T04:10:47;15.00;;;8.07;;
23826;SDS011;12094;50.822;4.376;2023-08-30T04:13:16;16.08;;;8.07;;
23826;SDS011;12094;50.822;4.376;2023-08-30T04:18:15;19.38;;;8.52;;
23826;SDS011;12094;50.822;4.376;2023-08-30T04:20:46;14.70;;;7.30;;
23826;SDS011;12094;50.822;4.376;2023-08-30T04:23:16;16.88;;;7.95;;
23826;SDS011;12094;50.822;4.376;2023-08-30T04:28:13;13.02;;;6.10;;
23826;SDS011;12094;50.822;4.376;2023-08-30T04:30:41;12.85;;;7.07;;
23826;SDS011;12094;50.822;4.376;2023-08-30T04:33:09;15.10;;;7.78;;
23826;SDS011;12094;50.822;4.376;2023-08-30T04:35:40;21.92;;;7.53;;
23826;SDS011;12094;50.822;4.376;2023-08-30T04:38:09;14.10;;;7.30;;
23826;SDS011;12094;50.822;4.376;2023-08-30T04:40:43;11.40;;;6.40;;
23826;SDS011;12094;50.822;4.376;2023-08-30T04:43:14;14.70;;;7.20;;
23826;SDS011;12094;50.822;4.376;2023-08-30T04:45:46;13.45;;;6.35;;
23826;SDS011;12094;50.822;4.376;2023-08-30T04:48:17;21.38;;;8.43;;
23826;SDS011;12094;50.822;4.376;2023-08-30T04:54:19;18.75;;;8.02;;
23826;SDS011;12094;50.822;4.376;2023-08-30T04:56:46;17.77;;;8.00;;
23826;SDS011;12094;50.822;4.376;2023-08-30T04:59:16;19.08;;;9.20;;
23826;SDS011;12094;50.822;4.376;2023-08-30T05:04:24;16.95;;;8.43;;
23826;SDS011;12094;50.822;4.376;2023-08-30T05:06:53;15.43;;;7.72;;
23826;SDS011;12094;50.822;4.376;2023-08-30T05:09:21;18.48;;;7.78;;
23826;SDS011;12094;50.822;4.376;2023-08-30T05:11:55;15.73;;;7.65;;
23826;SDS011;12094;50.822;4.376;2023-08-30T05:14:25;24.27;;;10.57;;
23826;SDS011;12094;50.822;4.376;2023-08-30T05:16:56;20.02;;;8.90;;
23826;SDS011;12094;50.822;4.376;2023-08-30T05:19:24;21.58;;;9.02;;
23826;SDS011;12094;50.822;4.376;2023-08-30T05:21:55;20.73;;;8.77;;
23826;SDS011;12094;50.822;4.376;2023-08-30T05:24:22;17.52;;;8.35;;
23826;SDS011;12094;50.822;4.376;2023-08-30T05:26:49;19.83;;;9.13;;
23826;SDS011;12094;50.822;4.376;2023-08-30T05:29:18;14.98;;;8.07;;
23826;SDS011;12094;50.822;4.376;2023-08-30T05:31:46;13.07;;;7.32;;
23826;SDS011;12094;50.822;4.376;2023-08-30T05:34:35;17.98;;;8.05;;
23826;SDS011;12094;50.822;4.376;2023-08-30T05:37:14;16.05;;;9.23;;
23826;SDS011;12094;50.822;4.376;2023-08-30T05:39:53;16.90;;;9.60;;
23826;SDS011;12094;50.822;4.376;2023-08-30T05:42:22;15.40;;;9.77;;
23826;SDS011;12094;50.822;4.376;2023-08-30T05:44:49;11.73;;;8.55;;
23826;SDS011;12094;50.822;4.376;2023-08-30T05:47:20;13.35;;;8.02;;
23826;SDS011;12094;50.822;4.376;2023-08-30T05:49:51;15.07;;;8.73;;
23826;SDS011;12094;50.822;4.376;2023-08-30T05:52:21;13.27;;;9.52;;
23826;SDS011;12094;50.822;4.376;2023-08-30T05:54:53;13.88;;;9.13;;
23826;SDS011;12094;50.822;4.376;2023-08-30T05:57:21;12.85;;;8.30;;
23826;SDS011;12094;50.822;4.376;2023-08-30T05:59:52;13.35;;;7.50;;
23826;SDS011;12094;50.822;4.376;2023-08-30T06:02:19;13.68;;;9.07;;
23826;SDS011;12094;50.822;4.376;2023-08-30T06:04:52;12.48;;;8.55;;
23826;SDS011;12094;50.822;4.376;2023-08-30T06:07:38;12.55;;;7.78;;
23826;SDS011;12094;50.822;4.376;2023-08-30T06:14:09;14.75;;;7.25;;
23826;SDS011;12094;50.822;4.376;2023-08-30T06:16:39;10.68;;;7.60;;
23826;SDS011;12094;50.822;4.376;2023-08-30T06:19:22;13.48;;;6.53;;
23826;SDS011;12094;50.822;4.376;2023-08-30T06:21:50;11.82;;;6.95;;
23826;SDS011;12094;50.822;4.376;2023-08-30T06:24:18;10.40;;;7.25;;
23826;SDS011;12094;50.822;4.376;2023-08-30T06:26:47;9.73;;;6.60;;
23826;SDS011;12094;50.822;4.376;2023-08-30T06:29:17;13.02;;;7.32;;
23826;SDS011;12094;50.822;4.376;2023-08-30T06:31:47;12.13;;;7.60;;
23826;SDS011;12094;50.822;4.376;2023-08-30T06:34:17;7.57;;;5.30;;
23826;SDS011;12094;50.822;4.376;2023-08-30T06:36:46;11.18;;;7.05;;
23826;SDS011;12094;50.822;4.376;2023-08-30T06:39:16;10.50;;;6.82;;
23826;SDS011;12094;50.822;4.376;2023-08-30T06:41:49;13.20;;;7.13;;
23826;SDS011;12094;50.822;4.376;2023-08-30T06:44:21;12.52;;;7.45;;
23826;SDS011;12094;50.822;4.376;2023-08-30T06:46:50;9.48;;;6.60;;
23826;SDS011;12094;50.822;4.376;2023-08-30T06:49:19;11.48;;;7.40;;
23826;SDS011;12094;50.822;4.376;2023-08-30T06:51:46;14.00;;;7.28;;
23826;SDS011;12094;50.822;4.376;2023-08-30T06:54:14;11.38;;;7.18;;
23826;SDS011;12094;50.822;4.376;2023-08-30T06:57:00;12.57;;;7.75;;
23826;SDS011;12094;50.822;4.376;2023-08-30T06:59:43;10.98;;;7.53;;
23826;SDS011;12094;50.822;4.376;2023-08-30T07:02:10;10.93;;;7.30;;
23826;SDS011;12094;50.822;4.376;2023-08-30T07:04:39;9.95;;;6.60;;
23826;SDS011;12094;50.822;4.376;2023-08-30T07:07:07;10.38;;;7.10;;
23826;SDS011;12094;50.822;4.376;2023-08-30T07:09:38;13.57;;;7.70;;
23826;SDS011;12094;50.822;4.376;2023-08-30T07:12:10;10.90;;;7.63;;
23826;SDS011;12094;50.822;4.376;2023-08-30T07:14:39;6.85;;;4.57;;
23826;SDS011;12094;50.822;4.376;2023-08-30T07:17:08;11.15;;;7.63;;
23826;SDS011;12094;50.822;4.376;2023-08-30T07:19:36;11.63;;;7.50;;
23826;SDS011;12094;50.822;4.376;2023-08-30T07:22:04;9.82;;;5.82;;
23826;SDS011;12094;50.822;4.376;2023-08-30T07:24:35;10.75;;;7.20;;
23826;SDS011;12094;50.822;4.376;2023-08-30T07:27:04;11.52;;;6.78;;
23826;SDS011;12094;50.822;4.376;2023-08-30T07:29:34;10.35;;;6.53;;
23826;SDS011;12094;50.822;4.376;2023-08-30T07:32:07;10.15;;;6.88;;
23826;SDS011;12094;50.822;4.376;2023-08-30T07:34:35;12.27;;;7.45;;
23826;SDS011;12094;50.822;4.376;2023-08-30T07:37:18;8.85;;;6.68;;
23826;SDS011;12094;50.822;4.376;2023-08-30T07:39:51;9.07;;;6.25;;
23826;SDS011;12094;50.822;4.376;2023-08-30T07:42:27;12.10;;;7.32;;
23826;SDS011;12094;50.822;4.376;2023-08-30T07:44:54;10.40;;;6.97;;
23826;SDS011;12094;50.822;4.376;2023-08-30T07:47:28;9.05;;;6.72;;
23826;SDS011;12094;50.822;4.376;2023-08-30T07:52:28;10.60;;;6.60;;
23826;SDS011;12094;50.822;4.376;2023-08-30T07:55:13;10.02;;;6.00;;
23826;SDS011;12094;50.822;4.376;2023-08-30T07:57:41;7.20;;;5.10;;
23826;SDS011;12094;50.822;4.376;2023-08-30T08:00:11;11.52;;;6.00;;
23826;SDS011;12094;50.822;4.376;2023-08-30T08:02:46;10.27;;;6.35;;
23826;SDS011;12094;50.822;4.376;2023-08-30T08:05:15;11.95;;;6.00;;
23826;SDS011;12094;50.822;4.376;2023-08-30T08:07:43;7.63;;;5.55;;
23826;SDS011;12094;50.822;4.376;2023-08-30T08:15:24;14.02;;;6.03;;
23826;SDS011;12094;50.822;4.376;2023-08-30T08:17:55;19.13;;;6.65;;
23826;SDS011;12094;50.822;4.376;2023-08-30T08:20:28;11.23;;;5.47;;
23826;SDS011;12094;50.822;4.376;2023-08-30T08:23:01;9.85;;;5.85;;
23826;SDS011;12094;50.822;4.376;2023-08-30T08:25:31;8.68;;;5.60;;
23826;SDS011;12094;50.822;4.376;2023-08-30T08:28:01;10.77;;;5.70;;
23826;SDS011;12094;50.822;4.376;2023-08-30T08:30:32;9.65;;;5.78;;
23826;SDS011;12094;50.822;4.376;2023-08-30T08:32:59;9.85;;;5.97;;
23826;SDS011;12094;50.822;4.376;2023-08-30T08:35:40;11.18;;;5.82;;
23826;SDS011;12094;50.822;4.376;2023-08-30T08:38:13;11.82;;;6.45;;
23826;SDS011;12094;50.822;4.376;2023-08-30T08:40:43;8.38;;;6.07;;
23826;SDS011;12094;50.822;4.376;2023-08-30T08:45:48;11.88;;;7.07;;
23826;SDS011;12094;50.822;4.376;2023-08-30T08:48:20;11.35;;;7.20;;
23826;SDS011;12094;50.822;4.376;2023-08-30T08:50:52;11.20;;;6.65;;
23826;SDS011;12094;50.822;4.376;2023-08-30T08:53:20;12.45;;;6.68;;
23826;SDS011;12094;50.822;4.376;2023-08-30T08:55:51;14.30;;;6.93;;
23826;SDS011;12094;50.822;4.376;2023-08-30T09:00:58;9.05;;;5.47;;
23826;SDS011;12094;50.822;4.376;2023-08-30T09:03:32;11.10;;;6.55;;
23826;SDS011;12094;50.822;4.376;2023-08-30T09:06:02;8.80;;;5.90;;
23826;SDS011;12094;50.822;4.376;2023-08-30T09:08:56;9.38;;;6.20;;
23826;SDS011;12094;50.822;4.376;2023-08-30T09:11:25;10.52;;;7.13;;
23826;SDS011;12094;50.822;4.376;2023-08-30T09:14:14;9.80;;;7.05;;
23826;SDS011;12094;50.822;4.376;2023-08-30T09:16:41;12.75;;;8.07;;
23826;SDS011;12094;50.822;4.376;2023-08-30T09:19:20;10.13;;;7.13;;
23826;SDS011;12094;50.822;4.376;2023-08-30T09:22:03;10.23;;;6.97;;
23826;SDS011;12094;50.822;4.376;2023-08-30T09:24:39;11.38;;;7.50;;
23826;SDS011;12094;50.822;4.376;2023-08-30T09:27:10;11.77;;;7.90;;
23826;SDS011;12094;50.822;4.376;2023-08-30T09:29:40;10.70;;;7.78;;
23826;SDS011;12094;50.822;4.376;2023-08-30T09:32:20;9.70;;;7.38;;
23826;SDS011;12094;50.822;4.376;2023-08-30T09:34:48;9.65;;;7.15;;
23826;SDS011;12094;50.822;4.376;2023-08-30T09:37:20;20.30;;;8.23;;
23826;SDS011;12094;50.822;4.376;2023-08-30T09:39:54;20.05;;;9.40;;
23826;SDS011;12094;50.822;4.376;2023-08-30T09:42:40;13.55;;;7.85;;
23826;SDS011;12094;50.822;4.376;2023-08-30T09:45:18;17.55;;;8.10;;
23826;SDS011;12094;50.822;4.376;2023-08-30T09:47:50;16.45;;;8.45;;
23826;SDS011;12094;50.822;4.376;2023-08-30T09:50:21;12.38;;;7.97;;
23826;SDS011;12094;50.822;4.376;2023-08-30T09:52:56;13.18;;;8.20;;
23826;SDS011;12094;50.822;4.376;2023-08-30T09:55:30;10.65;;;7.88;;
23826;SDS011;12094;50.822;4.376;2023-08-30T09:58:02;10.13;;;7.57;;
23826;SDS011;12094;50.822;4.376;2023-08-30T10:00:33;11.65;;;8.60;;
23826;SDS011;12094;50.822;4.376;2023-08-30T10:03:01;10.70;;;7.68;;
23826;SDS011;12094;50.822;4.376;2023-08-30T10:05:49;11.77;;;8.30;;
23826;SDS011;12094;50.822;4.376;2023-08-30T10:08:19;10.73;;;8.07;;
23826;SDS011;12094;50.822;4.376;2023-08-30T10:10:53;14.43;;;9.23;;
23826;SDS011;12094;50.822;4.376;2023-08-30T10:13:21;11.07;;;9.20;;
23826;SDS011;12094;50.822;4.376;2023-08-30T10:15:53;13.75;;;10.00;;
23826;SDS011;12094;50.822;4.376;2023-08-30T10:18:27;16.55;;;10.57;;
23826;SDS011;12094;50.822;4.376;2023-08-30T10:23:56;14.93;;;10.23;;
23826;SDS011;12094;50.822;4.376;2023-08-30T10:30:10;12.70;;;9.65;;
23826;SDS011;12094;50.822;4.376;2023-08-30T10:32:42;11.85;;;8.75;;
23826;SDS011;12094;50.822;4.376;2023-08-30T10:35:17;11.35;;;8.90;;
23826;SDS011;12094;50.822;4.376;2023-08-30T10:38:00;11.85;;;8.98;;
23826;SDS011;12094;50.822;4.376;2023-08-30T10:40:45;12.85;;;8.82;;
23826;SDS011;12094;50.822;4.376;2023-08-30T10:43:27;12.25;;;9.63;;
23826;SDS011;12094;50.822;4.376;2023-08-30T10:46:03;11.15;;;7.65;;
23826;SDS011;12094;50.822;4.376;2023-08-30T10:48:45;9.57;;;8.57;;
23826;SDS011;12094;50.822;4.376;2023-08-30T10:51:20;10.02;;;7.30;;
23826;SDS011;12094;50.822;4.376;2023-08-30T10:54:09;10.15;;;8.27;;
23826;SDS011;12094;50.822;4.376;2023-08-30T10:56:56;10.68;;;7.90;;
23826;SDS011;12094;50.822;4.376;2023-08-30T10:59:29;10.70;;;8.00;;
23826;SDS011;12094;50.822;4.376;2023-08-30T11:02:00;12.65;;;7.95;;
23826;SDS011;12094;50.822;4.376;2023-08-30T11:04:31;14.68;;;8.27;;
23826;SDS011;12094;50.822;4.376;2023-08-30T11:06:59;14.20;;;7.95;;
23826;SDS011;12094;50.822;4.376;2023-08-30T11:12:22;12.20;;;8.23;;
23826;SDS011;12094;50.822;4.376;2023-08-30T11:14:56;12.68;;;8.48;;
23826;SDS011;12094;50.822;4.376;2023-08-30T11:17:25;11.13;;;8.75;;
23826;SDS011;12094;50.822;4.376;2023-08-30T11:23:00;10.02;;;8.05;;
23826;SDS011;12094;50.822;4.376;2023-08-30T11:25:29;10.32;;;7.13;;
23826;SDS011;12094;50.822;4.376;2023-08-30T11:28:04;11.77;;;8.70;;
23826;SDS011;12094;50.822;4.376;2023-08-30T11:30:42;13.32;;;8.23;;
23826;SDS011;12094;50.822;4.376;2023-08-30T11:33:16;13.07;;;8.20;;
23826;SDS011;12094;50.822;4.376;2023-08-30T11:36:05;10.32;;;7.97;;
23826;SDS011;12094;50.822;4.376;2023-08-30T11:38:34;12.00;;;7.03;;
23826;SDS011;12094;50.822;4.376;2023-08-30T11:41:09;10.65;;;5.32;;
23826;SDS011;12094;50.822;4.376;2023-08-30T11:43:42;11.88;;;5.18;;
23826;SDS011;12094;50.822;4.376;2023-08-30T11:46:26;10.82;;;4.22;;
23826;SDS011;12094;50.822;4.376;2023-08-30T11:48:56;13.95;;;3.88;;
23826;SDS011;12094;50.822;4.376;2023-08-30T11:51:24;17.58;;;6.78;;
23826;SDS011;12094;50.822;4.376;2023-08-30T11:53:54;12.32;;;4.40;;
23826;SDS011;12094;50.822;4.376;2023-08-30T11:56:24;10.57;;;3.20;;
23826;SDS011;12094;50.822;4.376;2023-08-30T11:58:56;11.73;;;3.50;;
23826;SDS011;12094;50.822;4.376;2023-08-30T12:01:25;8.93;;;3.10;;
23826;SDS011;12094;50.822;4.376;2023-08-30T12:04:07;9.95;;;3.22;;
23826;SDS011;12094;50.822;4.376;2023-08-30T12:06:54;9.65;;;2.97;;
23826;SDS011;12094;50.822;4.376;2023-08-30T12:09:22;12.15;;;2.70;;
23826;SDS011;12094;50.822;4.376;2023-08-30T12:12:06;12.75;;;3.03;;
23826;SDS011;12094;50.822;4.376;2023-08-30T12:14:38;14.63;;;3.17;;
23826;SDS011;12094;50.822;4.376;2023-08-30T12:17:08;11.90;;;3.08;;
23826;SDS011;12094;50.822;4.376;2023-08-30T12:19:40;14.57;;;2.85;;
23826;SDS011;12094;50.822;4.376;2023-08-30T12:23:19;15.45;;;3.78;;
23826;SDS011;12094;50.822;4.376;2023-08-30T12:26:07;9.02;;;2.50;;
23826;SDS011;12094;50.822;4.376;2023-08-30T12:28:41;14.10;;;3.58;;
23826;SDS011;12094;50.822;4.376;2023-08-30T12:31:19;14.90;;;3.95;;
23826;SDS011;12094;50.822;4.376;2023-08-30T12:37:21;12.13;;;2.80;;
23826;SDS011;12094;50.822;4.376;2023-08-30T12:42:57;14.02;;;2.75;;
23826;SDS011;12094;50.822;4.376;2023-08-30T12:45:26;12.63;;;2.58;;
23826;SDS011;12094;50.822;4.376;2023-08-30T12:47:57;9.60;;;2.60;;
23826;SDS011;12094;50.822;4.376;2023-08-30T12:50:29;10.88;;;2.30;;
23826;SDS011;12094;50.822;4.376;2023-08-30T12:55:35;11.90;;;2.72;;
23826;SDS011;12094;50.822;4.376;2023-08-30T12:58:02;9.63;;;2.75;;
23826;SDS011;12094;50.822;4.376;2023-08-30T13:00:38;7.78;;;2.63;;
23826;SDS011;12094;50.822;4.376;2023-08-30T13:03:10;9.32;;;2.08;;
23826;SDS011;12094;50.822;4.376;2023-08-30T13:05:39;15.48;;;2.20;;
23826;SDS011;12094;50.822;4.376;2023-08-30T13:08:07;11.90;;;2.50;;
23826;SDS011;12094;50.822;4.376;2023-08-30T13:10:36;10.35;;;2.42;;
23826;SDS011;12094;50.822;4.376;2023-08-30T13:13:13;8.70;;;2.25;;
23826;SDS011;12094;50.822;4.376;2023-08-30T13:19:05;10.88;;;2.50;;
23826;SDS011;12094;50.822;4.376;2023-08-30T13:25:55;9.45;;;2.10;;
23826;SDS011;12094;50.822;4.376;2023-08-30T13:28:28;7.32;;;2.17;;
23826;SDS011;12094;50.822;4.376;2023-08-30T13:30:58;9.02;;;1.95;;
23826;SDS011;12094;50.822;4.376;2023-08-30T13:33:33;17.48;;;6.63;;
23826;SDS011;12094;50.822;4.376;2023-08-30T13:39:00;10.10;;;2.97;;
23826;SDS011;12094;50.822;4.376;2023-08-30T13:44:21;9.50;;;2.08;;
23826;SDS011;12094;50.822;4.376;2023-08-30T13:46:49;9.90;;;2.08;;
23826;SDS011;12094;50.822;4.376;2023-08-30T13:49:24;5.07;;;1.75;;
23826;SDS011;12094;50.822;4.376;2023-08-30T13:51:57;6.13;;;1.60;;
23826;SDS011;12094;50.822;4.376;2023-08-30T13:54:28;7.88;;;2.10;;
23826;SDS011;12094;50.822;4.376;2023-08-30T13:56:58;6.40;;;2.00;;
23826;SDS011;12094;50.822;4.376;2023-08-30T13:59:25;9.27;;;2.15;;
23826;SDS011;12094;50.822;4.376;2023-08-30T14:01:57;8.07;;;2.85;;
23826;SDS011;12094;50.822;4.376;2023-08-30T14:04:26;8.05;;;1.73;;
23826;SDS011;12094;50.822;4.376;2023-08-30T14:06:53;8.32;;;2.05;;
23826;SDS011;12094;50.822;4.376;2023-08-30T14:15:08;5.43;;;2.00;;
23826;SDS011;12094;50.822;4.376;2023-08-30T14:17:41;4.60;;;1.80;;
23826;SDS011;12094;50.822;4.376;2023-08-30T14:20:09;7.32;;;1.85;;
23826;SDS011;12094;50.822;4.376;2023-08-30T14:22:38;6.25;;;2.13;;
23826;SDS011;12094;50.822;4.376;2023-08-30T14:25:08;5.22;;;1.15;;
23826;SDS011;12094;50.822;4.376;2023-08-30T14:27:38;7.75;;;2.25;;
23826;SDS011;12094;50.822;4.376;2023-08-30T14:30:08;5.07;;;1.98;;
23826;SDS011;12094;50.822;4.376;2023-08-30T14:32:37;3.47;;;1.70;;
23826;SDS011;12094;50.822;4.376;2023-08-30T14:35:05;9.48;;;2.08;;
23826;SDS011;12094;50.822;4.376;2023-08-30T14:37:35;6.95;;;2.00;;
23826;SDS011;12094;50.822;4.376;2023-08-30T14:40:05;5.53;;;1.92;;
23826;SDS011;12094;50.822;4.376;2023-08-30T14:42:33;11.63;;;2.22;;
23826;SDS011;12094;50.822;4.376;2023-08-30T14:45:00;9.00;;;1.90;;
23826;SDS011;12094;50.822;4.376;2023-08-30T14:47:29;5.07;;;1.92;;
23826;SDS011;12094;50.822;4.376;2023-08-30T14:49:58;9.05;;;2.00;;
23826;SDS011;12094;50.822;4.376;2023-08-30T14:52:31;9.63;;;2.20;;
23826;SDS011;12094;50.822;4.376;2023-08-30T14:54:59;6.32;;;2.00;;
23826;SDS011;12094;50.822;4.376;2023-08-30T14:57:26;3.67;;;1.27;;
23826;SDS011;12094;50.822;4.376;2023-08-30T14:59:58;6.97;;;1.55;;
23826;SDS011;12094;50.822;4.376;2023-08-30T15:04:52;7.80;;;1.98;;
23826;SDS011;12094;50.822;4.376;2023-08-30T15:07:20;3.45;;;1.40;;
23826;SDS011;12094;50.822;4.376;2023-08-30T15:09:52;7.45;;;2.20;;
23826;SDS011;12094;50.822;4.376;2023-08-30T15:12:23;10.13;;;1.80;;
23826;SDS011;12094;50.822;4.376;2023-08-30T15:14:58;6.07;;;1.90;;
23826;SDS011;12094;50.822;4.376;2023-08-30T15:21:05;5.25;;;1.67;;
23826;SDS011;12094;50.822;4.376;2023-08-30T15:26:06;6.35;;;1.23;;
23826;SDS011;12094;50.822;4.376;2023-08-30T15:28:34;5.50;;;1.38;;
23826;SDS011;12094;50.822;4.376;2023-08-30T15:31:01;6.03;;;1.70;;
23826;SDS011;12094;50.822;4.376;2023-08-30T15:33:32;6.97;;;1.70;;
23826;SDS011;12094;50.822;4.376;2023-08-30T15:35:59;11.15;;;1.85;;
23826;SDS011;12094;50.822;4.376;2023-08-30T15:38:28;5.93;;;1.38;;
23826;SDS011;12094;50.822;4.376;2023-08-30T15:40:56;6.32;;;1.58;;
23826;SDS011;12094;50.822;4.376;2023-08-30T15:43:24;5.43;;;1.40;;
23826;SDS011;12094;50.822;4.376;2023-08-30T15:45:52;6.47;;;1.42;;
23826;SDS011;12094;50.822;4.376;2023-08-30T15:48:25;6.95;;;1.70;;
23826;SDS011;12094;50.822;4.376;2023-08-30T15:50:53;5.32;;;1.65;;
23826;SDS011;12094;50.822;4.376;2023-08-30T15:53:21;10.63;;;1.63;;
23826;SDS011;12094;50.822;4.376;2023-08-30T15:55:48;6.22;;;1.23;;
23826;SDS011;12094;50.822;4.376;2023-08-30T15:58:16;8.73;;;1.73;;
23826;SDS011;12094;50.822;4.376;2023-08-30T16:00:44;9.75;;;1.85;;
23826;SDS011;12094;50.822;4.376;2023-08-30T16:03:15;4.63;;;1.52;;
23826;SDS011;12094;50.822;4.376;2023-08-30T16:05:43;4.60;;;1.58;;
23826;SDS011;12094;50.822;4.376;2023-08-30T16:08:14;4.57;;;1.25;;
23826;SDS011;12094;50.822;4.376;2023-08-30T16:11:05;5.88;;;1.52;;
23826;SDS011;12094;50.822;4.376;2023-08-30T16:13:38;4.47;;;1.45;;
23826;SDS011;12094;50.822;4.376;2023-08-30T16:18:47;6.68;;;1.45;;
23826;SDS011;12094;50.822;4.376;2023-08-30T16:21:18;8.25;;;2.50;;
23826;SDS011;12094;50.822;4.376;2023-08-30T16:23:56;5.88;;;2.00;;
23826;SDS011;12094;50.822;4.376;2023-08-30T16:26:25;6.40;;;1.83;;
23826;SDS011;12094;50.822;4.376;2023-08-30T16:28:59;4.10;;;1.33;;
23826;SDS011;12094;50.822;4.376;2023-08-30T16:31:36;5.03;;;1.20;;
23826;SDS011;12094;50.822;4.376;2023-08-30T16:34:05;4.80;;;1.42;;
23826;SDS011;12094;50.822;4.376;2023-08-30T16:36:36;4.60;;;1.20;;
23826;SDS011;12094;50.822;4.376;2023-08-30T16:39:03;3.20;;;1.40;;
23826;SDS011;12094;50.822;4.376;2023-08-30T16:42:00;5.13;;;1.67;;
23826;SDS011;12094;50.822;4.376;2023-08-30T16:44:30;8.55;;;1.70;;
23826;SDS011;12094;50.822;4.376;2023-08-30T16:47:03;9.38;;;2.17;;
23826;SDS011;12094;50.822;4.376;2023-08-30T16:49:32;6.88;;;1.70;;
23826;SDS011;12094;50.822;4.376;2023-08-30T16:52:00;5.15;;;1.75;;
23826;SDS011;12094;50.822;4.376;2023-08-30T16:54:28;6.00;;;2.05;;